createdAt,value
2019-02-17T00:00:55.773Z,8.59
2019-02-17T00:03:27.402Z,8.72
2019-02-17T00:05:58.355Z,8.65
2019-02-17T00:08:29.326Z,8.69
2019-02-17T00:11:00.290Z,8.58
2019-02-17T00:13:31.768Z,8.48
2019-02-17T00:16:02.730Z,8.53
2019-02-17T00:18:33.785Z,8.61
2019-02-17T00:21:04.780Z,8.64
2019-02-17T00:23:36.036Z,8.54
2019-02-17T00:26:07.069Z,8.64
2019-02-17T00:28:38.057Z,8.56
2019-02-17T00:31:09.262Z,8.51
2019-02-17T00:33:40.235Z,8.60
2019-02-17T00:36:11.270Z,8.72
2019-02-17T00:38:42.835Z,8.73
2019-02-17T00:41:13.801Z,8.50
2019-02-17T00:43:44.779Z,8.61
2019-02-17T00:46:16.007Z,8.70
2019-02-17T00:48:47.589Z,8.57
2019-02-17T00:51:19.131Z,8.65
2019-02-17T00:53:50.376Z,8.55
2019-02-17T00:56:21.341Z,8.57
2019-02-17T00:58:53.750Z,8.63
2019-02-17T01:01:24.711Z,8.61
2019-02-17T01:03:55.742Z,8.64
2019-02-17T01:06:27.027Z,8.63
2019-02-17T01:08:57.990Z,8.46
2019-02-17T01:11:28.957Z,8.56
2019-02-17T01:14:00.247Z,8.26
2019-02-17T01:16:31.198Z,8.35
2019-02-17T01:19:02.962Z,8.34
2019-02-17T01:21:33.916Z,8.40
2019-02-17T01:24:05.158Z,8.54
2019-02-17T01:26:36.115Z,8.44
2019-02-17T01:29:07.089Z,8.29
2019-02-17T01:31:38.352Z,8.27
2019-02-17T01:34:11.705Z,8.33
2019-02-17T01:36:42.697Z,8.28
2019-02-17T01:39:14.778Z,8.25
2019-02-17T01:41:45.808Z,8.08
2019-02-17T01:44:16.873Z,8.14
2019-02-17T01:46:47.966Z,8.15
2019-02-17T01:49:18.951Z,8.06
2019-02-17T01:51:49.980Z,7.98
2019-02-17T01:54:20.963Z,8.03
2019-02-17T01:56:52.183Z,8.04
2019-02-17T01:59:30.369Z,8.09
2019-02-17T02:01:56.687Z,8.10
2019-02-17T02:04:27.722Z,8.05
2019-02-17T02:06:59.082Z,8.01
2019-02-17T02:09:30.068Z,8.04
2019-02-17T02:12:01.037Z,8.14
2019-02-17T02:14:32.629Z,8.12
2019-02-17T02:17:04.067Z,8.05
2019-02-17T02:19:35.087Z,8.07
2019-02-17T02:22:06.048Z,7.92
2019-02-17T02:24:38.291Z,7.92
2019-02-17T02:27:09.938Z,7.90
2019-02-17T02:29:41.617Z,7.81
2019-02-17T02:32:13.101Z,7.80
2019-02-17T02:34:44.426Z,7.74
2019-02-17T02:37:15.905Z,7.56
2019-02-17T02:39:47.218Z,7.66
2019-02-17T02:42:18.688Z,7.74
2019-02-17T02:44:50.163Z,7.68
2019-02-17T02:47:21.130Z,7.67
2019-02-17T02:49:52.615Z,7.63
2019-02-17T02:52:24.077Z,7.58
2019-02-17T02:54:55.046Z,7.51
2019-02-17T02:57:26.015Z,7.49
2019-02-17T02:59:57.294Z,7.37
2019-02-17T03:02:28.767Z,7.23
2019-02-17T03:04:59.743Z,7.31
2019-02-17T03:07:31.030Z,7.21
2019-02-17T03:10:02.627Z,7.12
2019-02-17T03:12:33.633Z,7.12
2019-02-17T03:15:05.931Z,7.19
2019-02-17T03:17:37.142Z,7.25
2019-02-17T03:20:09.152Z,7.38
2019-02-17T03:22:40.098Z,7.41
2019-02-17T03:25:11.504Z,7.39
2019-02-17T03:27:42.689Z,7.43
2019-02-17T03:30:14.104Z,7.50
2019-02-17T03:32:45.335Z,7.52
2019-02-17T03:35:16.297Z,7.50
2019-02-17T03:37:47.566Z,7.38
2019-02-17T03:40:19.123Z,7.37
2019-02-17T03:42:50.491Z,7.42
2019-02-17T03:45:22.279Z,7.43
2019-02-17T03:47:53.883Z,7.45
2019-02-17T03:50:25.386Z,7.35
2019-02-17T03:52:56.339Z,7.42
2019-02-17T03:55:27.673Z,7.46
2019-02-17T03:57:58.635Z,7.55
2019-02-17T04:00:29.653Z,7.43
2019-02-17T04:03:00.608Z,7.32
2019-02-17T04:05:31.936Z,7.51
2019-02-17T04:08:02.893Z,7.57
2019-02-17T04:10:33.932Z,7.43
2019-02-17T04:13:05.572Z,7.47
2019-02-17T04:15:37.442Z,7.46
2019-02-17T04:18:08.786Z,7.53
2019-02-17T04:20:40.032Z,7.31
2019-02-17T04:23:12.205Z,7.35
2019-02-17T04:25:44.004Z,7.26
2019-02-17T04:28:18.670Z,7.26
2019-02-17T04:30:49.756Z,7.34
2019-02-17T04:33:21.141Z,7.18
2019-02-17T04:35:52.656Z,7.13
2019-02-17T04:38:24.806Z,6.99
2019-02-17T04:40:56.107Z,7.09
2019-02-17T04:43:27.086Z,6.95
2019-02-17T04:45:58.434Z,6.97
2019-02-17T04:48:30.616Z,6.94
2019-02-17T04:51:02.135Z,7.08
2019-02-17T04:53:33.910Z,7.06
2019-02-17T04:56:05.028Z,7.20
2019-02-17T04:58:36.303Z,7.10
2019-02-17T05:01:07.467Z,6.94
2019-02-17T05:03:38.899Z,7.09
2019-02-17T05:06:10.262Z,7.22
2019-02-17T05:08:41.739Z,7.10
2019-02-17T05:11:12.953Z,6.97
2019-02-17T05:13:44.406Z,7.00
2019-02-17T05:16:15.535Z,6.93
2019-02-17T05:18:46.543Z,6.82
2019-02-17T05:21:18.033Z,6.98
2019-02-17T05:23:49.279Z,6.88
2019-02-17T05:26:20.624Z,6.93
2019-02-17T05:28:51.710Z,6.91
2019-02-17T05:31:22.684Z,6.86
2019-02-17T05:33:54.164Z,6.72
2019-02-17T05:36:25.471Z,6.79
2019-02-17T05:38:56.842Z,6.76
2019-02-17T05:41:28.544Z,6.66
2019-02-17T05:44:00.080Z,6.57
2019-02-17T05:46:31.295Z,6.60
2019-02-17T05:49:02.503Z,6.49
2019-02-17T05:51:33.710Z,6.58
2019-02-17T05:54:04.981Z,6.52
2019-02-17T05:56:36.773Z,6.56
2019-02-17T05:59:09.076Z,6.45
2019-02-17T06:01:40.836Z,6.38
2019-02-17T06:04:12.054Z,6.23
2019-02-17T06:06:43.325Z,6.35
2019-02-17T06:09:14.656Z,6.38
2019-02-17T06:11:45.914Z,6.37
2019-02-17T06:14:17.160Z,6.22
2019-02-17T06:16:48.628Z,6.37
2019-02-17T06:19:19.968Z,6.32
2019-02-17T06:21:51.213Z,6.32
2019-02-17T06:24:23.305Z,6.48
2019-02-17T06:26:55.258Z,6.55
2019-02-17T06:29:26.654Z,6.47
2019-02-17T06:31:58.246Z,6.32
2019-02-17T06:34:29.289Z,6.32
2019-02-17T06:37:00.516Z,6.28
2019-02-17T06:39:31.478Z,6.16
2019-02-17T06:42:02.928Z,6.29
2019-02-17T06:44:35.110Z,6.40
2019-02-17T06:47:37.414Z,6.51
2019-02-17T06:50:10.264Z,6.56
2019-02-17T06:52:41.572Z,6.51
2019-02-17T06:55:26.180Z,6.46
2019-02-17T06:57:57.325Z,6.61
2019-02-17T07:00:34.379Z,6.48
2019-02-17T07:03:06.174Z,6.55
2019-02-17T07:06:14.828Z,6.52
2019-02-17T07:08:46.150Z,6.58
2019-02-17T07:11:17.390Z,6.69
2019-02-17T07:13:49.191Z,6.80
2019-02-17T07:16:22.145Z,6.78
2019-02-17T07:18:54.680Z,6.83
2019-02-17T07:21:25.958Z,6.85
2019-02-17T07:23:57.590Z,6.77
2019-02-17T07:26:29.335Z,6.71
2019-02-17T07:29:00.695Z,6.76
2019-02-17T07:31:34.942Z,6.86
2019-02-17T07:34:05.447Z,6.96
2019-02-17T07:36:36.682Z,7.13
2019-02-17T07:39:08.122Z,7.33
2019-02-17T07:41:39.913Z,7.42
2019-02-17T07:44:12.114Z,7.55
2019-02-17T07:46:43.426Z,7.72
2019-02-17T07:49:14.479Z,7.77
2019-02-17T07:51:45.786Z,7.80
2019-02-17T07:54:17.416Z,7.98
2019-02-17T07:56:48.555Z,8.01
2019-02-17T07:59:19.510Z,8.12
2019-02-17T08:01:50.720Z,8.31
2019-02-17T08:04:22.138Z,8.37
2019-02-17T08:06:53.201Z,8.45
2019-02-17T08:09:24.837Z,8.60
2019-02-17T08:11:56.378Z,8.69
2019-02-17T08:14:27.599Z,8.81
2019-02-17T08:16:59.061Z,8.98
2019-02-17T08:19:30.260Z,9.00
2019-02-17T08:22:01.236Z,9.14
2019-02-17T08:24:32.425Z,9.25
2019-02-17T08:27:04.668Z,9.42
2019-02-17T08:29:36.241Z,9.31
2019-02-17T08:32:07.509Z,9.59
2019-02-17T08:34:38.458Z,9.62
2019-02-17T08:37:09.480Z,9.82
2019-02-17T08:39:41.025Z,9.88
2019-02-17T08:42:12.669Z,10.10
2019-02-17T08:44:43.979Z,10.26
2019-02-17T08:47:16.280Z,10.53
2019-02-17T08:49:47.339Z,10.64
2019-02-17T08:52:18.559Z,10.63
2019-02-17T08:54:49.634Z,10.73
2019-02-17T08:57:20.634Z,10.83
2019-02-17T08:59:51.898Z,10.80
2019-02-17T09:02:23.244Z,11.00
2019-02-17T09:04:54.593Z,11.21
2019-02-17T09:07:25.855Z,11.33
2019-02-17T09:09:57.080Z,11.40
2019-02-17T09:12:28.150Z,11.45
2019-02-17T09:14:59.369Z,11.66
2019-02-17T09:17:30.370Z,11.83
2019-02-17T09:20:01.966Z,11.95
2019-02-17T09:22:34.104Z,11.93
2019-02-17T09:25:05.950Z,12.09
2019-02-17T09:27:37.860Z,12.05
2019-02-17T09:30:15.163Z,12.29
2019-02-17T09:32:46.629Z,12.46
2019-02-17T09:35:18.452Z,12.52
2019-02-17T09:37:49.806Z,12.64
2019-02-17T09:40:21.476Z,12.56
2019-02-17T09:42:53.547Z,12.63
2019-02-17T09:45:25.456Z,12.85
2019-02-17T09:47:57.249Z,13.10
2019-02-17T09:50:28.491Z,13.04
2019-02-17T09:53:00.426Z,13.18
2019-02-17T09:55:31.397Z,13.34
2019-02-17T09:58:02.668Z,13.54
2019-02-17T10:00:33.987Z,13.63
2019-02-17T10:03:05.048Z,13.79
2019-02-17T10:05:36.305Z,14.02
2019-02-17T10:08:07.564Z,14.11
2019-02-17T10:10:38.530Z,14.15
2019-02-17T10:13:10.011Z,14.34
2019-02-17T10:15:41.055Z,14.40
2019-02-17T10:18:12.441Z,14.62
2019-02-17T10:20:44.374Z,14.71
2019-02-17T10:23:15.655Z,14.72
2019-02-17T10:25:46.667Z,14.83
2019-02-17T10:28:17.745Z,14.97
2019-02-17T10:30:49.341Z,15.08
2019-02-17T10:33:20.554Z,15.20
2019-02-17T10:35:51.858Z,15.31
2019-02-17T10:38:23.325Z,15.43
2019-02-17T10:40:55.174Z,15.57
2019-02-17T10:43:26.745Z,15.53
2019-02-17T10:45:58.033Z,15.61
2019-02-17T10:48:29.494Z,15.69
2019-02-17T10:51:00.962Z,15.84
2019-02-17T10:53:32.133Z,15.92
2019-02-17T10:56:03.093Z,16.02
2019-02-17T10:58:35.692Z,16.16
2019-02-17T11:01:07.074Z,16.21
2019-02-17T11:03:38.068Z,16.38
2019-02-17T11:06:09.356Z,16.57
2019-02-17T11:08:40.924Z,16.59
2019-02-17T11:11:12.795Z,16.76
2019-02-17T11:13:44.123Z,16.73
2019-02-17T11:16:15.181Z,16.82
2019-02-17T11:18:46.521Z,16.92
2019-02-17T11:21:17.492Z,17.07
2019-02-17T11:23:48.749Z,17.09
2019-02-17T11:26:20.067Z,17.17
2019-02-17T11:28:51.639Z,17.32
2019-02-17T11:31:23.838Z,17.50
2019-02-17T11:33:55.936Z,17.55
2019-02-17T11:36:27.219Z,17.68
2019-02-17T11:38:59.796Z,17.74
2019-02-17T11:41:31.834Z,17.82
2019-02-17T11:44:03.381Z,17.89
2019-02-17T11:46:34.701Z,17.97
2019-02-17T11:49:05.724Z,18.16
2019-02-17T11:51:37.695Z,18.15
2019-02-17T11:54:08.814Z,18.16
2019-02-17T11:56:40.427Z,18.31
2019-02-17T11:59:12.739Z,18.34
2019-02-17T12:01:43.784Z,18.43
2019-02-17T12:04:15.609Z,18.60
2019-02-17T12:06:47.066Z,18.67
2019-02-17T12:09:18.338Z,18.62
2019-02-17T12:11:49.543Z,18.75
2019-02-17T12:14:21.009Z,18.75
2019-02-17T12:16:52.482Z,18.83
2019-02-17T12:19:23.753Z,18.95
2019-02-17T12:22:00.788Z,19.01
2019-02-17T12:24:41.576Z,19.02
2019-02-17T12:27:30.499Z,19.09
2019-02-17T12:30:06.202Z,19.17
2019-02-17T12:32:39.900Z,19.00
2019-02-17T12:35:11.027Z,19.08
2019-02-17T12:37:41.984Z,19.20
2019-02-17T12:40:13.800Z,19.20
2019-02-17T12:42:45.112Z,19.23
2019-02-17T12:45:18.356Z,19.28
2019-02-17T12:47:57.455Z,19.34
2019-02-17T12:50:23.659Z,19.42
2019-02-17T12:52:56.850Z,19.38
2019-02-17T12:55:28.768Z,19.38
2019-02-17T12:57:59.976Z,19.42
2019-02-17T13:00:31.363Z,19.48
2019-02-17T13:03:02.577Z,19.60
2019-02-17T13:05:33.557Z,19.68
2019-02-17T13:08:04.802Z,19.71
2019-02-17T13:10:36.084Z,19.62
2019-02-17T13:13:07.627Z,19.63
2019-02-17T13:15:38.963Z,19.66
2019-02-17T13:18:09.978Z,19.75
2019-02-17T13:20:41.279Z,19.75
2019-02-17T13:23:13.098Z,19.73
2019-02-17T13:25:44.445Z,19.81
2019-02-17T13:28:16.074Z,19.70
2019-02-17T13:30:48.874Z,19.71
2019-02-17T13:33:20.230Z,19.69
2019-02-17T13:35:52.506Z,19.68
2019-02-17T13:38:23.811Z,19.53
2019-02-17T13:40:55.802Z,19.49
2019-02-17T13:43:27.361Z,19.44
2019-02-17T13:45:58.894Z,19.11
2019-02-17T13:48:30.925Z,18.86
2019-02-17T13:51:02.436Z,18.86
2019-02-17T13:53:33.938Z,18.74
2019-02-17T13:56:05.025Z,18.60
2019-02-17T13:58:36.316Z,18.53
2019-02-17T14:01:07.550Z,18.62
2019-02-17T14:03:48.228Z,18.58
2019-02-17T14:06:11.530Z,18.51
2019-02-17T14:08:42.792Z,18.38
2019-02-17T14:11:14.314Z,18.15
2019-02-17T14:13:46.009Z,18.08
2019-02-17T14:16:17.662Z,18.00
2019-02-17T14:18:49.177Z,18.04
2019-02-17T14:21:20.580Z,18.22
2019-02-17T14:23:52.299Z,18.13
2019-02-17T14:26:23.578Z,18.11
2019-02-17T14:28:55.911Z,18.10
2019-02-17T14:31:27.783Z,18.01
2019-02-17T14:34:00.359Z,17.96
2019-02-17T14:36:31.498Z,17.91
2019-02-17T14:39:02.518Z,17.88
2019-02-17T14:41:35.471Z,18.01
2019-02-17T14:44:06.591Z,17.95
2019-02-17T14:46:38.110Z,17.96
2019-02-17T14:49:09.073Z,17.85
2019-02-17T14:51:40.624Z,17.84
2019-02-17T14:54:13.211Z,17.68
2019-02-17T14:56:44.585Z,17.55
2019-02-17T14:59:15.566Z,17.45
2019-02-17T15:01:46.951Z,17.51
2019-02-17T15:04:17.898Z,17.47
2019-02-17T15:06:49.198Z,17.60
2019-02-17T15:09:20.743Z,17.55
2019-02-17T15:11:52.633Z,17.54
2019-02-17T15:14:24.151Z,17.55
2019-02-17T15:16:56.288Z,17.53
2019-02-17T15:19:27.331Z,17.31
2019-02-17T15:21:58.469Z,17.37
2019-02-17T15:24:30.396Z,17.43
2019-02-17T15:27:01.572Z,17.42
2019-02-17T15:29:32.913Z,17.26
2019-02-17T15:32:04.428Z,17.30
2019-02-17T15:34:35.537Z,17.17
2019-02-17T15:37:07.300Z,17.27
2019-02-17T15:39:38.952Z,17.18
2019-02-17T15:42:11.310Z,17.08
2019-02-17T15:44:42.432Z,17.07
2019-02-17T15:47:13.679Z,17.04
2019-02-17T15:49:44.643Z,17.09
2019-02-17T15:52:15.946Z,17.23
2019-02-17T15:54:47.476Z,17.23
2019-02-17T15:57:18.476Z,17.30
2019-02-17T15:59:49.924Z,17.38
2019-02-17T16:02:21.181Z,17.37
2019-02-17T16:04:52.563Z,17.37
2019-02-17T16:07:23.579Z,17.24
2019-02-17T16:09:54.785Z,17.18
2019-02-17T16:12:26.613Z,17.23
2019-02-17T16:14:57.857Z,17.23
2019-02-17T16:17:29.112Z,17.16
2019-02-17T16:20:00.777Z,17.12
2019-02-17T16:22:32.066Z,17.07
2019-02-17T16:25:03.032Z,16.97
2019-02-17T16:27:34.351Z,16.95
2019-02-17T16:30:06.338Z,16.89
2019-02-17T16:32:37.386Z,16.70
2019-02-17T16:35:08.586Z,16.73
2019-02-17T16:37:39.614Z,16.69
2019-02-17T16:40:12.566Z,16.63
2019-02-17T16:42:43.592Z,16.62
2019-02-17T16:45:15.723Z,16.52
2019-02-17T16:47:47.070Z,16.49
2019-02-17T16:50:19.622Z,16.41
2019-02-17T16:52:51.411Z,16.38
2019-02-17T16:55:23.495Z,16.31
2019-02-17T16:57:54.562Z,16.24
2019-02-17T17:00:27.072Z,16.14
2019-02-17T17:02:58.215Z,16.09
2019-02-17T17:05:29.176Z,16.05
2019-02-17T17:08:00.434Z,15.96
2019-02-17T17:10:31.422Z,15.89
2019-02-17T17:13:02.540Z,15.81
2019-02-17T17:15:34.017Z,15.71
2019-02-17T17:18:05.398Z,15.66
2019-02-17T17:20:36.933Z,15.55
2019-02-17T17:23:09.718Z,15.47
2019-02-17T17:25:40.784Z,15.43
2019-02-17T17:28:12.316Z,15.21
2019-02-17T17:30:43.661Z,15.10
2019-02-17T17:33:15.740Z,14.98
2019-02-17T17:35:46.706Z,14.81
2019-02-17T17:38:18.051Z,14.61
2019-02-17T17:40:49.072Z,14.60
2019-02-17T17:43:20.575Z,14.49
2019-02-17T17:45:52.061Z,14.37
2019-02-17T17:48:24.287Z,14.29
2019-02-17T17:50:57.524Z,14.23
2019-02-17T17:53:28.600Z,13.98
2019-02-17T17:56:00.178Z,13.98
2019-02-17T17:58:31.466Z,13.87
2019-02-17T18:01:03.020Z,13.84
2019-02-17T18:03:34.029Z,13.65
2019-02-17T18:06:05.457Z,13.60
2019-02-17T18:08:36.792Z,13.50
2019-02-17T18:11:08.108Z,13.46
2019-02-17T18:13:40.339Z,13.21
2019-02-17T18:16:11.774Z,13.30
2019-02-17T18:18:43.670Z,13.31
2019-02-17T18:21:15.270Z,13.33
2019-02-17T18:23:47.134Z,13.19
2019-02-17T18:26:18.276Z,13.14
2019-02-17T18:28:49.286Z,13.05
2019-02-17T18:31:20.342Z,12.99
2019-02-17T18:33:51.421Z,12.91
2019-02-17T18:36:22.539Z,12.66
2019-02-17T18:38:53.889Z,12.63
2019-02-17T18:41:25.564Z,12.63
2019-02-17T18:43:56.699Z,12.57
2019-02-17T18:46:27.626Z,12.49
2019-02-17T18:48:59.764Z,12.57
2019-02-17T18:51:31.028Z,12.46
2019-02-17T18:54:03.046Z,12.43
2019-02-17T18:56:34.658Z,12.44
2019-02-17T18:59:06.395Z,12.37
2019-02-17T19:01:38.278Z,12.36
2019-02-17T19:04:09.289Z,12.32
2019-02-17T19:06:40.313Z,12.25
2019-02-17T19:09:11.335Z,12.10
2019-02-17T19:11:42.741Z,12.13
2019-02-17T19:14:13.894Z,12.01
2019-02-17T19:16:45.210Z,11.98
2019-02-17T19:19:16.258Z,11.99
2019-02-17T19:21:47.579Z,12.01
2019-02-17T19:24:19.475Z,11.91
2019-02-17T19:26:51.021Z,11.94
2019-02-17T19:29:22.434Z,11.80
2019-02-17T19:31:54.723Z,11.78
2019-02-17T19:34:26.536Z,11.77
2019-02-17T19:36:59.128Z,11.71
2019-02-17T19:39:30.133Z,11.72
2019-02-17T19:42:01.868Z,11.65
2019-02-17T19:44:33.374Z,11.70
2019-02-17T19:47:04.881Z,11.60
2019-02-17T19:49:36.818Z,11.65
2019-02-17T19:52:08.378Z,11.56
2019-02-17T19:54:39.392Z,11.45
2019-02-17T19:57:11.141Z,11.56
2019-02-17T19:59:42.176Z,11.56
2019-02-17T20:02:14.094Z,11.52
2019-02-17T20:04:48.581Z,11.71
2019-02-17T20:07:19.897Z,11.62
2019-02-17T20:09:50.909Z,11.65
2019-02-17T20:12:21.964Z,11.74
2019-02-17T20:14:53.038Z,11.62
2019-02-17T20:17:24.544Z,11.65
2019-02-17T20:19:57.303Z,11.54
2019-02-17T20:22:28.879Z,11.52
2019-02-17T20:25:00.325Z,11.60
2019-02-17T20:27:31.887Z,11.53
2019-02-17T20:30:03.682Z,11.49
2019-02-17T20:32:34.988Z,11.42
2019-02-17T20:35:06.588Z,11.23
2019-02-17T20:37:38.024Z,11.19
2019-02-17T20:40:09.857Z,11.13
2019-02-17T20:42:41.480Z,11.08
2019-02-17T20:45:13.904Z,11.00
2019-02-17T20:47:45.266Z,10.99
2019-02-17T20:50:16.474Z,10.90
2019-02-17T20:52:48.413Z,10.85
2019-02-17T20:55:19.804Z,10.70
2019-02-17T20:57:51.547Z,10.72
2019-02-17T21:00:25.960Z,10.54
2019-02-17T21:02:57.034Z,10.36
2019-02-17T21:05:28.707Z,10.34
2019-02-17T21:07:59.831Z,10.31
2019-02-17T21:10:31.067Z,10.44
2019-02-17T21:13:02.857Z,10.34
2019-02-17T21:15:34.689Z,10.34
2019-02-17T21:18:05.968Z,10.35
2019-02-17T21:20:37.475Z,10.20
2019-02-17T21:23:09.090Z,10.26
2019-02-17T21:25:40.339Z,10.26
2019-02-17T21:28:11.566Z,10.38
2019-02-17T21:30:42.897Z,10.36
2019-02-17T21:33:14.346Z,10.51
2019-02-17T21:35:45.724Z,10.48
2019-02-17T21:38:16.927Z,10.43
2019-02-17T21:40:48.087Z,10.29
2019-02-17T21:43:19.113Z,10.21
2019-02-17T21:45:50.089Z,10.29
2019-02-17T21:48:21.556Z,10.29
2019-02-17T21:50:53.070Z,10.37
2019-02-17T21:53:24.595Z,10.31
2019-02-17T21:55:57.174Z,10.37
2019-02-17T21:58:28.217Z,10.49
2019-02-17T22:00:59.932Z,10.48
2019-02-17T22:03:31.230Z,10.41
2019-02-17T22:06:02.473Z,10.39
2019-02-17T22:08:35.045Z,10.33
2019-02-17T22:11:14.994Z,10.31
2019-02-17T22:13:46.849Z,10.30
2019-02-17T22:16:20.231Z,10.28
2019-02-17T22:18:51.076Z,10.32
2019-02-17T22:21:22.544Z,10.36
2019-02-17T22:23:53.753Z,10.35
2019-02-17T22:26:24.914Z,10.29
2019-02-17T22:28:57.277Z,10.38
2019-02-17T22:31:29.056Z,10.33
2019-02-17T22:34:00.983Z,10.38
2019-02-17T22:36:32.429Z,10.42
2019-02-17T22:39:06.333Z,10.34
2019-02-17T22:41:37.335Z,10.28
2019-02-17T22:44:08.952Z,10.20
2019-02-17T22:46:40.160Z,10.31
2019-02-17T22:49:11.375Z,10.38
2019-02-17T22:51:42.437Z,10.39
2019-02-17T22:54:14.183Z,10.33
2019-02-17T22:56:45.255Z,10.31
2019-02-17T22:59:16.379Z,10.32
2019-02-17T23:01:47.637Z,10.36
2019-02-17T23:04:18.814Z,10.32
2019-02-17T23:06:54.151Z,10.24
2019-02-17T23:09:23.586Z,10.29
2019-02-17T23:11:54.924Z,10.30
2019-02-17T23:14:27.121Z,10.27
2019-02-17T23:16:58.277Z,10.26
2019-02-17T23:19:29.249Z,10.17
2019-02-17T23:22:00.536Z,10.04
2019-02-17T23:24:32.457Z,10.16
2019-02-17T23:27:04.187Z,10.07
2019-02-17T23:29:35.183Z,9.98
2019-02-17T23:32:06.447Z,10.02
2019-02-17T23:34:37.666Z,9.97
2019-02-17T23:37:09.178Z,9.96
2019-02-17T23:39:40.783Z,9.99
2019-02-17T23:42:12.574Z,9.99
2019-02-17T23:44:44.184Z,9.94
2019-02-17T23:47:15.585Z,9.91
2019-02-17T23:49:46.730Z,9.85
2019-02-17T23:52:17.754Z,9.82
2019-02-17T23:54:48.793Z,9.78
2019-02-17T23:57:20.316Z,9.73
2019-02-17T23:59:51.272Z,9.79
